PROFILE

 METAR AND TAF INFORMATION
ADDS - METARS form results

(0645 UTC 20 September 2020)
http://aviationweather.gov/metar/data/
 
GCLA 200630Z 33008KT 9999 BKN026 23/17 Q1018
GCLA 200600Z 32008KT 9999 BKN027 23/17 Q1018
TAF GCLA 200200Z 2003/2103 32007KT 9999 SCT025 TX28/2014Z TN21/2006Z BECMG 2008/2010 02010KT 

 AIRPORT MAP

 RUNWAY INFORMATION
Runway 01 Runway length 7218 ft Runway width 148 ft
Runway elevation 103 ft Runway displaced threshold 0 ft Runway heading 359
Runway 19 Runway length 7218 ft Runway width 148 ft
Runway elevation 65 ft Runway displaced threshold 0 ft Runway heading 179

 AIRPORT FREQUENCIES
Type APP Name CANARIAS A Frequency 126.1 MHZ
Type ATIS Name INFO Frequency 118.6 MHZ
Type GND Name GND Frequency 121.8 MHZ
Type TWR Name TWR Frequency 118.9 MHZ

 AIRPORT NEAR NAVIGATION AIDS
Type DME Name La Palma Frequency 112400 KHZ
Type NDB Name La Palma Frequency 389 KHZ